createdAt,value
2023-02-17T00:01:22.483Z,99.90
2023-02-17T00:03:50.158Z,99.90
2023-02-17T00:06:18.410Z,99.90
2023-02-17T00:08:45.626Z,99.90
2023-02-17T00:11:12.774Z,99.90
2023-02-17T00:13:39.767Z,99.90
2023-02-17T00:16:25.927Z,99.90
2023-02-17T00:18:54.593Z,99.90
2023-02-17T00:21:22.446Z,99.90
2023-02-17T00:23:49.595Z,99.90
2023-02-17T00:26:16.922Z,99.90
2023-02-17T00:28:44.364Z,99.90
2023-02-17T00:31:16.215Z,99.90
2023-02-17T00:33:43.324Z,99.90
2023-02-17T00:36:17.875Z,99.90
2023-02-17T00:38:44.987Z,99.90
2023-02-17T00:41:11.986Z,99.90
2023-02-17T00:43:39.026Z,99.90
2023-02-17T00:46:06.482Z,99.90
2023-02-17T00:48:33.525Z,99.90
2023-02-17T00:51:00.450Z,99.90
2023-02-17T00:53:27.863Z,99.90
2023-02-17T00:55:54.771Z,99.90
2023-02-17T00:58:23.691Z,99.90
2023-02-17T01:00:50.618Z,99.90
2023-02-17T01:03:18.165Z,99.90
2023-02-17T01:05:46.979Z,99.90
2023-02-17T01:08:15.778Z,99.90
2023-02-17T01:10:43.679Z,99.90
2023-02-17T01:13:11.090Z,99.90
2023-02-17T01:15:42.900Z,99.90
2023-02-17T01:18:11.772Z,99.90
2023-02-17T01:20:39.004Z,99.90
2023-02-17T01:23:07.144Z,99.90
2023-02-17T01:25:38.061Z,99.90
2023-02-17T01:28:05.977Z,99.90
2023-02-17T01:30:32.908Z,99.90
2023-02-17T01:32:59.864Z,99.90
2023-02-17T01:35:27.464Z,99.90
2023-02-17T01:37:54.423Z,99.90
2023-02-17T01:40:23.623Z,99.90
2023-02-17T01:42:50.626Z,99.90
2023-02-17T01:45:20.308Z,99.90
2023-02-17T01:48:02.560Z,99.90
2023-02-17T01:50:37.159Z,99.90
2023-02-17T01:53:05.689Z,99.90
2023-02-17T01:55:32.682Z,99.90
2023-02-17T01:57:59.730Z,99.90
2023-02-17T02:00:26.954Z,99.90
2023-02-17T02:02:54.077Z,99.90
2023-02-17T02:05:21.292Z,99.90
2023-02-17T02:07:48.311Z,99.90
2023-02-17T02:10:15.782Z,99.90
2023-02-17T02:12:43.885Z,99.90
2023-02-17T02:15:16.420Z,99.90
2023-02-17T02:18:03.035Z,99.90
2023-02-17T02:20:52.689Z,99.90
2023-02-17T02:23:51.475Z,99.90
2023-02-17T02:26:47.766Z,99.90
2023-02-17T02:29:14.686Z,99.90
2023-02-17T02:32:00.289Z,99.90
2023-02-17T02:34:47.349Z,99.90
2023-02-17T02:37:25.384Z,99.90
2023-02-17T02:39:53.007Z,99.90
2023-02-17T02:42:24.150Z,99.90
2023-02-17T02:44:51.173Z,99.90
2023-02-17T02:47:50.269Z,99.90
2023-02-17T02:50:30.593Z,99.90
2023-02-17T02:53:33.786Z,99.90
2023-02-17T02:56:01.131Z,99.90
2023-02-17T02:58:35.174Z,99.90
2023-02-17T03:01:22.460Z,99.90
2023-02-17T03:04:09.186Z,99.90
2023-02-17T03:06:50.693Z,99.90
2023-02-17T03:09:28.789Z,99.90
2023-02-17T03:11:56.405Z,99.90
2023-02-17T03:14:24.082Z,99.90
2023-02-17T03:16:51.732Z,99.90
2023-02-17T03:19:20.311Z,99.90
2023-02-17T03:21:56.083Z,99.90
2023-02-17T03:24:23.189Z,99.90
2023-02-17T03:26:50.471Z,99.90
2023-02-17T03:29:17.391Z,99.90
2023-02-17T03:31:45.444Z,99.90
2023-02-17T03:34:12.660Z,99.90
2023-02-17T03:36:39.554Z,99.90
2023-02-17T03:39:06.494Z,99.90
2023-02-17T03:41:33.446Z,99.90
2023-02-17T03:44:00.437Z,99.90
2023-02-17T03:46:27.335Z,99.90
2023-02-17T03:48:54.241Z,99.90
2023-02-17T03:51:22.098Z,99.90
2023-02-17T03:53:49.397Z,99.90
2023-02-17T03:56:16.610Z,99.90
2023-02-17T03:58:43.787Z,99.90
2023-02-17T04:01:11.366Z,99.90
2023-02-17T04:03:40.052Z,99.90
2023-02-17T04:06:07.383Z,99.90
2023-02-17T04:08:34.475Z,99.90
2023-02-17T04:11:02.349Z,99.90
2023-02-17T04:13:29.257Z,99.90
2023-02-17T04:15:56.263Z,99.90
2023-02-17T04:18:23.305Z,99.90
2023-02-17T04:20:50.725Z,99.90
2023-02-17T04:23:18.001Z,99.90
2023-02-17T04:25:45.130Z,99.90
2023-02-17T04:28:12.736Z,99.90
2023-02-17T04:30:39.720Z,99.90
2023-02-17T04:33:06.626Z,99.90
2023-02-17T04:35:33.598Z,99.90
2023-02-17T04:38:00.476Z,99.90
2023-02-17T04:40:27.446Z,99.90
2023-02-17T04:42:54.544Z,99.90
2023-02-17T04:45:21.922Z,99.90
2023-02-17T04:47:48.967Z,99.90
2023-02-17T04:50:16.030Z,99.90
2023-02-17T04:52:42.972Z,99.90
2023-02-17T04:55:09.926Z,99.90
2023-02-17T04:57:36.874Z,99.90
2023-02-17T05:00:05.221Z,99.90
2023-02-17T05:02:32.220Z,99.90
2023-02-17T05:04:59.211Z,99.90
2023-02-17T05:07:26.203Z,99.90
2023-02-17T05:09:54.186Z,99.90
2023-02-17T05:12:21.153Z,99.90
2023-02-17T05:14:48.169Z,99.90
2023-02-17T05:17:15.100Z,99.90
2023-02-17T05:19:41.988Z,99.90
2023-02-17T05:22:08.884Z,99.90
2023-02-17T05:24:37.954Z,99.90
2023-02-17T05:27:05.729Z,99.90
2023-02-17T05:29:32.625Z,99.90
2023-02-17T05:31:59.597Z,99.90
2023-02-17T05:34:26.654Z,99.90
2023-02-17T05:36:53.609Z,99.90
2023-02-17T05:39:20.515Z,99.90
2023-02-17T05:41:47.404Z,99.90
2023-02-17T05:44:14.306Z,99.90
2023-02-17T05:46:41.236Z,99.90
2023-02-17T05:49:08.294Z,99.90
2023-02-17T05:51:35.242Z,99.90
2023-02-17T05:54:02.317Z,99.90
2023-02-17T05:56:29.259Z,99.90
2023-02-17T05:58:56.199Z,99.90
2023-02-17T06:01:23.080Z,99.90
2023-02-17T06:03:50.009Z,99.90
2023-02-17T06:06:16.909Z,99.90
2023-02-17T06:08:43.852Z,99.90
2023-02-17T06:11:10.766Z,99.90
2023-02-17T06:13:37.828Z,99.90
2023-02-17T06:16:05.527Z,99.90
2023-02-17T06:18:32.727Z,99.90
2023-02-17T06:20:59.681Z,99.90
2023-02-17T06:23:26.866Z,99.90
2023-02-17T06:25:54.044Z,99.90
2023-02-17T06:28:22.087Z,99.90
2023-02-17T06:30:49.220Z,99.90
2023-02-17T06:33:16.426Z,99.90
2023-02-17T06:35:44.606Z,99.90
2023-02-17T06:38:11.585Z,99.90
2023-02-17T06:40:38.557Z,99.90
2023-02-17T06:43:06.720Z,99.90
2023-02-17T06:45:33.669Z,99.90
2023-02-17T06:48:00.602Z,99.90
2023-02-17T06:50:27.818Z,99.90
2023-02-17T06:52:54.729Z,99.90
2023-02-17T06:55:21.622Z,99.90
2023-02-17T06:57:48.693Z,99.90
2023-02-17T07:00:15.801Z,99.90
2023-02-17T07:02:42.910Z,99.90
2023-02-17T07:05:10.024Z,99.90
2023-02-17T07:07:37.008Z,99.90
2023-02-17T07:10:04.456Z,99.90
2023-02-17T07:12:31.405Z,99.90
2023-02-17T07:14:58.373Z,99.90
2023-02-17T07:17:25.873Z,99.90
2023-02-17T07:19:52.827Z,99.90
2023-02-17T07:22:19.785Z,99.90
2023-02-17T07:24:46.665Z,99.90
2023-02-17T07:27:13.779Z,99.90
2023-02-17T07:29:40.662Z,99.90
2023-02-17T07:32:07.758Z,99.90
2023-02-17T07:34:37.271Z,99.90
2023-02-17T07:37:04.216Z,99.90
2023-02-17T07:39:31.196Z,99.90
2023-02-17T07:42:01.048Z,99.90
2023-02-17T07:44:28.377Z,99.90
2023-02-17T07:46:55.306Z,99.90
2023-02-17T07:49:22.199Z,99.90
2023-02-17T07:51:49.214Z,99.90
2023-02-17T07:54:16.221Z,99.90
2023-02-17T07:56:43.174Z,99.90
2023-02-17T07:59:13.441Z,99.90
2023-02-17T08:01:40.345Z,99.90
2023-02-17T08:04:07.380Z,99.90
2023-02-17T08:06:34.388Z,99.90
2023-02-17T08:09:19.815Z,99.90
2023-02-17T08:12:05.465Z,99.90
2023-02-17T08:14:33.560Z,99.90
2023-02-17T08:17:00.628Z,99.90
2023-02-17T08:19:39.508Z,99.90
2023-02-17T08:22:16.319Z,99.90
2023-02-17T08:24:43.273Z,99.90
2023-02-17T08:27:10.168Z,99.90
2023-02-17T08:29:37.118Z,99.90
2023-02-17T08:32:04.354Z,99.90
2023-02-17T08:34:34.544Z,99.90
2023-02-17T08:37:02.528Z,99.90
2023-02-17T08:39:29.676Z,99.90
2023-02-17T08:41:56.642Z,99.90
2023-02-17T08:44:23.699Z,99.90
2023-02-17T08:46:51.177Z,99.90
2023-02-17T08:49:25.564Z,99.90
2023-02-17T08:51:52.631Z,99.90
2023-02-17T08:54:19.647Z,99.90
2023-02-17T08:56:46.730Z,99.90
2023-02-17T08:59:14.037Z,99.90
2023-02-17T09:01:41.458Z,99.90
2023-02-17T09:04:09.117Z,99.90
2023-02-17T09:06:48.942Z,99.90
2023-02-17T09:09:17.341Z,99.90
2023-02-17T09:11:44.461Z,99.90
2023-02-17T09:14:11.722Z,99.90
2023-02-17T09:16:41.110Z,99.90
2023-02-17T09:19:08.605Z,99.90
2023-02-17T09:21:35.558Z,99.90
2023-02-17T09:24:02.687Z,99.90
2023-02-17T09:26:29.871Z,99.90
2023-02-17T09:28:58.074Z,99.90
2023-02-17T09:31:26.679Z,99.90
2023-02-17T09:33:54.379Z,99.90
2023-02-17T09:36:23.570Z,99.90
2023-02-17T09:38:51.190Z,99.90
2023-02-17T09:41:35.134Z,99.90
2023-02-17T09:44:03.374Z,99.90
2023-02-17T09:46:35.932Z,99.90
2023-02-17T09:49:08.012Z,99.90
2023-02-17T09:51:46.947Z,99.90
2023-02-17T09:54:28.212Z,99.90
2023-02-17T09:56:55.285Z,99.90
2023-02-17T09:59:52.264Z,99.90
2023-02-17T10:02:48.143Z,99.90
2023-02-17T10:05:17.131Z,99.90
2023-02-17T10:07:53.180Z,99.90
2023-02-17T10:10:22.891Z,99.90
2023-02-17T10:12:57.931Z,99.90
2023-02-17T10:15:26.883Z,99.90
2023-02-17T10:17:59.769Z,99.90
2023-02-17T10:20:36.973Z,99.90
2023-02-17T10:23:30.289Z,99.90
2023-02-17T10:26:06.602Z,99.90
2023-02-17T10:28:48.913Z,99.90
2023-02-17T10:31:18.509Z,99.90
2023-02-17T10:33:53.576Z,99.90
2023-02-17T10:37:07.188Z,99.90
2023-02-17T10:40:39.581Z,99.90
2023-02-17T10:43:24.843Z,99.90
2023-02-17T10:46:42.791Z,99.90
2023-02-17T10:49:28.253Z,99.90
2023-02-17T10:51:57.087Z,99.90
2023-02-17T10:54:36.074Z,99.90
2023-02-17T10:57:03.921Z,99.90
2023-02-17T10:59:34.245Z,99.90
2023-02-17T11:02:33.636Z,99.90
2023-02-17T11:05:01.197Z,99.90
2023-02-17T11:07:36.112Z,99.90
2023-02-17T11:10:05.184Z,99.90
2023-02-17T11:12:40.171Z,99.90
2023-02-17T11:15:19.326Z,99.90
2023-02-17T11:17:46.388Z,99.90
2023-02-17T11:20:13.528Z,99.90
2023-02-17T11:22:42.366Z,99.90
2023-02-17T11:25:26.865Z,99.90
2023-02-17T11:27:55.664Z,99.90
2023-02-17T11:30:23.364Z,99.90
2023-02-17T11:32:50.818Z,99.90
2023-02-17T11:35:36.047Z,99.90
2023-02-17T11:38:16.545Z,99.90
2023-02-17T11:41:01.515Z,99.90
2023-02-17T11:43:29.447Z,99.90
2023-02-17T11:46:18.016Z,99.90
2023-02-17T11:49:07.067Z,99.90
2023-02-17T11:51:37.065Z,99.90
2023-02-17T11:54:41.770Z,99.90
2023-02-17T11:57:17.630Z,99.90
2023-02-17T12:00:07.705Z,99.90
2023-02-17T12:02:55.805Z,99.90
2023-02-17T12:05:44.333Z,99.90
2023-02-17T12:08:14.344Z,99.90
2023-02-17T12:10:50.394Z,99.90
2023-02-17T12:13:49.750Z,99.90
2023-02-17T12:16:19.304Z,99.90
2023-02-17T12:18:54.019Z,99.90
2023-02-17T12:21:59.330Z,99.90
2023-02-17T12:24:55.490Z,99.90
2023-02-17T12:27:42.003Z,99.90
2023-02-17T12:30:18.436Z,99.90
2023-02-17T12:33:00.830Z,99.90
2023-02-17T12:35:58.449Z,99.90
2023-02-17T12:38:27.408Z,99.90
2023-02-17T12:41:08.031Z,99.90
2023-02-17T12:43:48.047Z,99.90
2023-02-17T12:46:29.237Z,99.90
2023-02-17T12:49:00.168Z,99.90
2023-02-17T12:51:42.901Z,99.90
2023-02-17T12:54:34.709Z,99.90
2023-02-17T12:57:10.955Z,99.90
2023-02-17T12:59:45.701Z,99.90
2023-02-17T13:02:17.698Z,99.90
2023-02-17T13:04:45.918Z,99.90
2023-02-17T13:07:51.438Z,99.90
2023-02-17T13:10:21.349Z,99.90
2023-02-17T13:13:05.085Z,99.90
2023-02-17T13:15:34.970Z,99.90
2023-02-17T13:18:13.508Z,99.90
2023-02-17T13:20:42.528Z,99.90
2023-02-17T13:23:13.151Z,99.90
2023-02-17T13:25:40.579Z,99.90
2023-02-17T13:28:38.142Z,99.90
2023-02-17T13:31:12.516Z,98.50
2023-02-17T13:33:48.360Z,98.10
2023-02-17T13:36:34.553Z,96.90
2023-02-17T13:39:27.222Z,97.60
2023-02-17T13:41:56.038Z,97.50
2023-02-17T13:44:30.418Z,96.60
2023-02-17T13:47:03.405Z,95.10
2023-02-17T13:49:34.019Z,95.10
2023-02-17T13:52:09.438Z,94.30
2023-02-17T13:54:36.508Z,93.80
2023-02-17T13:57:03.651Z,93.00
2023-02-17T13:59:30.704Z,91.90
2023-02-17T14:02:04.602Z,92.20
2023-02-17T14:04:31.906Z,91.70
2023-02-17T14:06:59.931Z,91.70
2023-02-17T14:09:29.557Z,91.70
2023-02-17T14:11:56.881Z,90.60
2023-02-17T14:14:26.241Z,90.60
2023-02-17T14:17:04.478Z,89.70
2023-02-17T14:19:45.642Z,90.10
2023-02-17T14:22:23.464Z,89.70
2023-02-17T14:25:08.652Z,89.00
2023-02-17T14:27:46.369Z,87.20
2023-02-17T14:30:29.893Z,84.40
2023-02-17T14:33:20.627Z,83.00
2023-02-17T14:35:54.382Z,82.50
2023-02-17T14:38:32.077Z,81.70
2023-02-17T14:41:01.374Z,80.90
2023-02-17T14:43:28.574Z,79.90
2023-02-17T14:45:55.793Z,77.00
2023-02-17T14:48:23.125Z,77.00
2023-02-17T14:50:50.225Z,78.50
2023-02-17T14:53:30.976Z,75.60
2023-02-17T14:56:02.363Z,76.10
2023-02-17T14:58:29.664Z,76.30
2023-02-17T15:00:56.863Z,75.70
2023-02-17T15:03:23.912Z,76.60
2023-02-17T15:05:51.056Z,77.80
2023-02-17T15:08:19.701Z,79.30
2023-02-17T15:10:47.068Z,78.30
2023-02-17T15:13:14.899Z,78.50
2023-02-17T15:15:45.027Z,80.10
2023-02-17T15:18:12.384Z,78.40
2023-02-17T15:20:40.059Z,78.30
2023-02-17T15:23:14.381Z,78.20
2023-02-17T15:25:41.480Z,78.80
2023-02-17T15:28:08.637Z,79.30
2023-02-17T15:30:36.018Z,77.20
2023-02-17T15:33:03.023Z,78.30
2023-02-17T15:35:30.174Z,78.50
2023-02-17T15:37:57.173Z,78.60
2023-02-17T15:40:25.722Z,78.30
2023-02-17T15:42:55.629Z,78.60
2023-02-17T15:45:23.471Z,79.10
2023-02-17T15:47:51.650Z,79.00
2023-02-17T15:50:22.736Z,78.10
2023-02-17T15:52:50.848Z,78.70
2023-02-17T15:55:21.325Z,80.10
2023-02-17T15:57:52.379Z,80.30
2023-02-17T16:00:20.542Z,81.40
2023-02-17T16:02:51.379Z,82.10
2023-02-17T16:05:20.661Z,83.00
2023-02-17T16:07:48.142Z,83.50
2023-02-17T16:10:20.481Z,83.80
2023-02-17T16:12:51.251Z,83.70
2023-02-17T16:15:23.339Z,84.10
2023-02-17T16:17:50.700Z,84.30
2023-02-17T16:20:21.350Z,83.80
2023-02-17T16:22:48.487Z,82.60
2023-02-17T16:25:16.258Z,82.90
2023-02-17T16:27:43.946Z,82.60
2023-02-17T16:30:31.462Z,81.90
2023-02-17T16:32:58.534Z,82.20
2023-02-17T16:35:27.320Z,82.70
2023-02-17T16:37:59.061Z,83.10
2023-02-17T16:40:28.559Z,83.00
2023-02-17T16:42:56.193Z,83.60
2023-02-17T16:45:25.038Z,82.50
2023-02-17T16:47:53.750Z,83.00
2023-02-17T16:50:33.505Z,83.50
2023-02-17T16:53:02.335Z,84.00
2023-02-17T16:55:31.224Z,85.20
2023-02-17T16:57:58.222Z,84.90
2023-02-17T17:00:27.836Z,86.30
2023-02-17T17:02:54.854Z,86.20
2023-02-17T17:05:22.117Z,86.90
2023-02-17T17:07:51.279Z,88.40
2023-02-17T17:10:21.817Z,90.40
2023-02-17T17:12:48.852Z,90.90
2023-02-17T17:15:18.905Z,91.40
2023-02-17T17:18:02.435Z,91.80
2023-02-17T17:20:35.067Z,92.50
2023-02-17T17:23:04.163Z,93.00
2023-02-17T17:25:31.257Z,92.90
2023-02-17T17:27:58.444Z,93.30
2023-02-17T17:30:27.722Z,94.10
2023-02-17T17:32:54.775Z,95.50
2023-02-17T17:35:21.780Z,96.50
2023-02-17T17:37:48.844Z,97.70
2023-02-17T17:40:21.902Z,98.40
2023-02-17T17:42:48.942Z,99.20
2023-02-17T17:45:16.059Z,99.90
2023-02-17T17:47:43.176Z,99.90
2023-02-17T17:50:16.157Z,99.90
2023-02-17T17:52:44.303Z,99.90
2023-02-17T17:55:11.364Z,99.90
2023-02-17T17:57:38.607Z,99.90
2023-02-17T18:00:09.985Z,99.90
2023-02-17T18:02:41.976Z,99.90
2023-02-17T18:05:13.073Z,99.90
2023-02-17T18:07:42.938Z,99.90
2023-02-17T18:10:10.709Z,99.90
2023-02-17T18:12:37.742Z,99.90
2023-02-17T18:15:05.368Z,99.90
2023-02-17T18:17:33.141Z,99.90
2023-02-17T18:20:00.238Z,99.90
2023-02-17T18:22:27.988Z,99.90
2023-02-17T18:24:55.152Z,99.90
2023-02-17T18:27:26.246Z,99.90
2023-02-17T18:29:56.740Z,99.90
2023-02-17T18:32:25.029Z,99.90
2023-02-17T18:34:52.124Z,99.90
2023-02-17T18:37:19.116Z,99.90
2023-02-17T18:39:46.252Z,99.90
2023-02-17T18:42:13.266Z,99.90
2023-02-17T18:44:40.360Z,99.90
2023-02-17T18:47:07.321Z,99.90
2023-02-17T18:49:34.381Z,99.90
2023-02-17T18:52:01.397Z,99.90
2023-02-17T18:54:28.441Z,99.90
2023-02-17T18:56:55.576Z,99.90
2023-02-17T18:59:22.539Z,99.90
2023-02-17T19:01:49.609Z,99.90
2023-02-17T19:04:16.649Z,99.90
2023-02-17T19:06:43.576Z,99.90
2023-02-17T19:09:10.485Z,99.90
2023-02-17T19:11:37.716Z,99.90
2023-02-17T19:14:04.720Z,99.90
2023-02-17T19:16:32.307Z,99.90
2023-02-17T19:18:59.419Z,99.90
2023-02-17T19:21:26.840Z,99.90
2023-02-17T19:23:54.085Z,99.90
2023-02-17T19:26:21.309Z,99.90
2023-02-17T19:28:48.448Z,99.90
2023-02-17T19:31:17.149Z,99.90
2023-02-17T19:33:45.755Z,99.90
2023-02-17T19:36:14.855Z,99.90
2023-02-17T19:38:42.090Z,99.90
2023-02-17T19:41:10.020Z,99.90
2023-02-17T19:43:37.077Z,99.90
2023-02-17T19:46:04.149Z,99.90
2023-02-17T19:48:31.227Z,99.90
2023-02-17T19:51:00.089Z,99.90
2023-02-17T19:53:27.249Z,99.90
2023-02-17T19:55:54.295Z,99.90
2023-02-17T19:58:21.369Z,99.90
2023-02-17T20:00:48.349Z,99.90
2023-02-17T20:03:15.290Z,99.90
2023-02-17T20:05:42.354Z,99.90
2023-02-17T20:08:09.298Z,99.90
2023-02-17T20:10:39.340Z,99.90
2023-02-17T20:13:06.805Z,99.90
2023-02-17T20:15:33.807Z,99.90
2023-02-17T20:18:01.040Z,99.90
2023-02-17T20:20:28.122Z,99.90
2023-02-17T20:22:55.098Z,99.90
2023-02-17T20:25:22.042Z,99.90
2023-02-17T20:27:48.943Z,99.90
2023-02-17T20:30:16.138Z,99.90
2023-02-17T20:32:43.167Z,99.90
2023-02-17T20:35:13.285Z,99.90
2023-02-17T20:37:40.288Z,99.90
2023-02-17T20:40:07.845Z,99.90
2023-02-17T20:42:34.765Z,99.90
2023-02-17T20:45:01.777Z,99.90
2023-02-17T20:47:28.806Z,99.90
2023-02-17T20:49:55.740Z,99.90
2023-02-17T20:52:22.681Z,99.90
2023-02-17T20:54:49.797Z,99.90
2023-02-17T20:57:16.797Z,99.90
2023-02-17T20:59:43.771Z,99.90
2023-02-17T21:02:11.200Z,99.90
2023-02-17T21:04:38.179Z,99.90
2023-02-17T21:07:05.153Z,99.90
2023-02-17T21:09:32.119Z,99.90
2023-02-17T21:11:59.235Z,99.90
2023-02-17T21:14:26.165Z,99.90
2023-02-17T21:16:53.211Z,99.90
2023-02-17T21:19:20.362Z,99.90
2023-02-17T21:21:47.296Z,99.90
2023-02-17T21:24:14.413Z,99.90
2023-02-17T21:26:41.404Z,99.90
2023-02-17T21:29:08.389Z,99.90
2023-02-17T21:31:37.041Z,99.90
2023-02-17T21:34:04.154Z,99.90
2023-02-17T21:36:31.159Z,99.90
2023-02-17T21:38:59.319Z,99.90
2023-02-17T21:41:27.699Z,99.90
2023-02-17T21:44:13.728Z,99.90
2023-02-17T21:46:42.988Z,99.90
2023-02-17T21:49:10.085Z,99.90
2023-02-17T21:51:37.833Z,99.90
2023-02-17T21:54:05.845Z,99.90
2023-02-17T21:56:32.813Z,99.90
2023-02-17T21:59:00.100Z,99.90
2023-02-17T22:01:27.215Z,99.90
2023-02-17T22:03:54.270Z,99.90
2023-02-17T22:06:32.351Z,99.90
2023-02-17T22:08:59.332Z,99.90
2023-02-17T22:11:31.499Z,99.90
2023-02-17T22:14:00.003Z,99.90
2023-02-17T22:16:27.437Z,99.90
2023-02-17T22:18:54.433Z,99.90
2023-02-17T22:21:21.426Z,99.90
2023-02-17T22:23:48.526Z,99.90
2023-02-17T22:26:20.194Z,99.90
2023-02-17T22:28:47.300Z,99.90
2023-02-17T22:31:15.564Z,99.90
2023-02-17T22:33:42.765Z,99.90
2023-02-17T22:36:15.420Z,99.90
2023-02-17T22:38:42.567Z,99.90
2023-02-17T22:41:11.107Z,99.90
2023-02-17T22:43:39.503Z,99.90
2023-02-17T22:46:07.241Z,99.90
2023-02-17T22:48:35.400Z,99.90
2023-02-17T22:51:09.998Z,99.90
2023-02-17T22:53:37.220Z,99.90
2023-02-17T22:56:04.603Z,99.90
2023-02-17T22:58:31.572Z,99.90
2023-02-17T23:01:09.284Z,99.90
2023-02-17T23:03:36.538Z,99.90
2023-02-17T23:06:14.737Z,99.90
2023-02-17T23:08:43.233Z,99.90
2023-02-17T23:11:11.994Z,99.90
2023-02-17T23:13:39.198Z,99.90
2023-02-17T23:16:07.269Z,99.90
2023-02-17T23:18:34.855Z,99.90
2023-02-17T23:21:07.696Z,99.90
2023-02-17T23:23:34.751Z,99.90
2023-02-17T23:26:01.643Z,99.90
2023-02-17T23:28:28.617Z,99.90
2023-02-17T23:30:55.550Z,99.90
2023-02-17T23:33:23.167Z,99.90
2023-02-17T23:35:50.104Z,99.90
2023-02-17T23:38:20.990Z,99.90
2023-02-17T23:40:49.971Z,99.90
2023-02-17T23:43:17.195Z,99.90
2023-02-17T23:45:44.110Z,99.90
2023-02-17T23:48:11.310Z,99.90
2023-02-17T23:50:38.269Z,99.90
2023-02-17T23:53:05.443Z,99.90
2023-02-17T23:55:32.384Z,99.90
2023-02-17T23:58:00.709Z,99.90
